Time;durP1;ratioP1;P1;durP2;ratioP2;P2;SDS_P1;SDS_P2;PMS_P1;PMS_P2;Temp;Humidity;BMP_temperature;BMP_pressure;BME280_temperature;BME280_humidity;BME280_pressure;Samples;Min_cycle;Max_cycle;Signal;HPM_P1;HPM_P2
2021/09/23 00:01:02;;;;;;;21.70;14.30;;;;;;;11.28;95.44;101507.98;112636;1192;72241;-81
2021/09/23 00:05:57;;;;;;;20.90;13.00;;;;;;;11.26;95.43;101500.13;112793;1192;61575;-81
2021/09/23 00:08:24;;;;;;;26.30;13.60;;;;;;;11.23;95.26;101495.94;112722;1192;61246;-81
2021/09/23 00:10:51;;;;;;;26.70;16.20;;;;;;;11.20;95.16;101497.69;112782;1192;75354;-81
2021/09/23 00:13:18;;;;;;;24.50;14.40;;;;;;;11.18;95.34;101494.19;112930;1192;70952;-83
2021/09/23 00:15:45;;;;;;;25.20;14.10;;;;;;;11.17;95.29;101486.35;112660;1193;72672;-82
2021/09/23 00:18:14;;;;;;;22.90;13.30;;;;;;;11.15;95.50;101475.88;112760;1192;62955;-82
2021/09/23 00:20:44;;;;;;;23.00;13.50;;;;;;;11.16;95.57;101469.95;112743;1193;60956;-82
2021/09/23 00:23:11;;;;;;;24.60;13.00;;;;;;;11.16;95.16;101472.97;112675;1193;74335;-81
2021/09/23 00:25:38;;;;;;;20.50;13.00;;;;;;;11.16;95.00;101479.31;112711;1193;72603;-81
2021/09/23 00:28:07;;;;;;;23.80;13.10;;;;;;;11.16;94.82;101482.02;112803;1192;73790;-81
2021/09/23 00:30:35;;;;;;;23.90;12.80;;;;;;;11.15;94.69;101473.92;112786;1191;62006;-81
2021/09/23 00:33:02;;;;;;;23.30;15.40;;;;;;;11.14;94.31;101468.17;112711;1192;61092;-83
2021/09/23 00:35:28;;;;;;;21.70;14.10;;;;;;;11.13;94.26;101469.94;112704;1192;74595;-82
2021/09/23 00:37:55;;;;;;;21.10;12.90;;;;;;;11.10;94.14;101466.50;112702;1191;61064;-82
2021/09/23 00:40:21;;;;;;;19.90;12.80;;;;;;;11.05;93.75;101461.71;112736;1193;61049;-83
2021/09/23 00:42:49;;;;;;;23.80;13.50;;;;;;;11.00;93.67;101457.06;112669;1193;61643;-82
2021/09/23 00:45:18;;;;;;;25.80;14.90;;;;;;;10.93;93.61;101452.16;112750;1192;61026;-83
2021/09/23 00:47:45;;;;;;;24.40;13.80;;;;;;;10.87;93.53;101450.30;113172;1192;75760;-82
2021/09/23 00:50:13;;;;;;;25.60;14.20;;;;;;;10.83;93.92;101443.30;112721;1192;71456;-81
2021/09/23 00:52:40;;;;;;;22.60;12.70;;;;;;;10.79;94.09;101444.71;112681;1192;72625;-81
2021/09/23 00:55:10;;;;;;;26.70;14.80;;;;;;;10.77;94.09;101445.45;112636;1192;61969;-82
2021/09/23 00:57:37;;;;;;;26.40;14.60;;;;;;;10.76;94.00;101447.75;112639;1192;61080;-81
2021/09/23 01:00:07;;;;;;;23.80;14.50;;;;;;;10.74;94.26;101443.10;112649;1192;74571;-81
2021/09/23 01:02:34;;;;;;;27.30;16.20;;;;;;;10.75;94.76;101443.37;112983;1192;71157;-81
2021/09/23 01:05:02;;;;;;;23.60;14.20;;;;;;;10.78;94.91;101440.23;113012;1192;72395;-82
2021/09/23 01:07:28;;;;;;;17.70;10.40;;;;;;;10.80;94.85;101437.20;113035;1192;61118;-82
2021/09/23 01:09:55;;;;;;;25.20;14.20;;;;;;;10.84;94.83;101435.76;112845;1192;61013;-83
2021/09/23 01:12:24;;;;;;;28.20;14.70;;;;;;;10.88;94.94;101430.20;112833;1192;74936;-82
2021/09/23 01:14:53;;;;;;;23.60;14.80;;;;;;;10.92;94.77;101431.95;113022;1192;71003;-82
2021/09/23 01:17:20;;;;;;;23.40;15.10;;;;;;;10.96;94.61;101425.61;112955;1184;72608;-83
2021/09/23 01:19:47;;;;;;;31.60;15.20;;;;;;;11.00;94.12;101428.57;113099;1193;62129;-83
2021/09/23 01:22:16;;;;;;;25.90;15.60;;;;;;;11.02;94.13;101423.02;112770;1192;61024;-81
2021/09/23 01:24:44;;;;;;;28.30;17.40;;;;;;;11.05;93.93;101415.23;112943;1191;73692;-83
2021/09/23 01:27:12;;;;;;;26.30;15.60;;;;;;;11.07;93.94;101410.90;112684;1192;70964;-82
2021/09/23 01:29:40;;;;;;;23.80;14.00;;;;;;;11.10;93.58;101409.58;112578;1192;72642;-82
2021/09/23 01:32:08;;;;;;;25.20;15.00;;;;;;;11.11;93.49;101401.79;112677;1192;61989;-81
2021/09/23 01:34:36;;;;;;;25.30;14.30;;;;;;;11.11;93.25;101397.38;112710;1190;61671;-80
2021/09/23 01:37:07;;;;;;;28.10;15.00;;;;;;;11.10;93.22;101392.33;112838;1191;74463;-80
2021/09/23 01:39:35;;;;;;;25.80;14.80;;;;;;;11.11;92.98;101394.77;112746;1192;71285;-82
2021/09/23 01:42:02;;;;;;;25.80;14.90;;;;;;;11.10;93.09;101393.05;113815;1191;73895;-84
2021/09/23 01:44:28;;;;;;;22.90;14.50;;;;;;;11.09;93.09;101379.73;113970;1191;61046;-80
2021/09/23 01:46:55;;;;;;;28.70;16.80;;;;;;;11.07;92.94;101380.60;113000;1192;61010;-82
2021/09/23 01:49:22;;;;;;;24.20;14.80;;;;;;;11.07;92.91;101378.90;112638;1193;61057;-82
2021/09/23 01:51:48;;;;;;;29.50;15.70;;;;;;;11.06;92.68;101376.35;112705;1193;71063;-81
2021/09/23 01:54:16;;;;;;;30.40;15.90;;;;;;;11.05;92.74;101371.08;112784;1192;61077;-81
2021/09/23 01:56:42;;;;;;;25.60;16.00;;;;;;;11.05;92.65;101367.55;112765;1192;61602;-82
2021/09/23 01:59:09;;;;;;;24.30;15.50;;;;;;;11.04;92.69;101364.33;112664;1192;61202;-82
2021/09/23 02:01:37;;;;;;;27.90;16.90;;;;;;;11.02;92.58;101359.02;112724;1193;61058;-83
2021/09/23 02:04:04;;;;;;;29.60;16.50;;;;;;;11.00;92.50;101355.48;112737;1192;71032;-82
2021/09/23 02:06:31;;;;;;;27.30;16.60;;;;;;;10.98;92.42;101349.44;112625;1192;72566;-82
2021/09/23 02:08:57;;;;;;;29.00;15.10;;;;;;;10.97;92.37;101346.48;112667;1192;61062;-81
2021/09/23 02:11:24;;;;;;;28.70;15.40;;;;;;;10.96;92.52;101342.09;112506;1192;61122;-81
2021/09/23 02:13:50;;;;;;;28.90;15.00;;;;;;;10.96;92.38;101340.70;112741;1192;61101;-81
2021/09/23 02:16:17;;;;;;;24.40;14.70;;;;;;;10.94;92.45;101337.91;112863;1193;62289;-80
2021/09/23 02:18:43;;;;;;;28.70;16.30;;;;;;;10.94;92.54;101340.23;112708;1191;61052;-80
2021/09/23 02:21:10;;;;;;;30.20;17.70;;;;;;;10.94;92.27;101330.24;112738;1192;61202;-81
2021/09/23 02:23:37;;;;;;;33.90;17.80;;;;;;;10.95;92.15;101322.02;112757;1192;60966;-81
2021/09/23 02:26:03;;;;;;;31.90;16.60;;;;;;;10.95;92.11;101324.91;112810;1192;74567;-81
2021/09/23 02:28:31;;;;;;;34.00;17.40;;;;;;;10.95;91.81;101320.63;112665;1193;72162;-83
2021/09/23 02:30:57;;;;;;;32.10;18.70;;;;;;;10.94;91.75;101314.31;112683;1191;73126;-82
2021/09/23 02:33:24;;;;;;;37.00;18.20;;;;;;;10.93;91.73;101306.48;112651;1191;61090;-82
2021/09/23 02:35:50;;;;;;;31.00;17.40;;;;;;;10.93;91.78;101306.00;112628;1193;61049;-81
2021/09/23 02:38:17;;;;;;;27.30;16.40;;;;;;;10.93;91.71;101295.91;112525;1192;61052;-81
2021/09/23 02:40:43;;;;;;;30.00;17.30;;;;;;;10.93;91.77;101292.69;112536;1190;61055;-81
2021/09/23 02:43:10;;;;;;;32.90;18.80;;;;;;;10.92;91.61;101293.29;112499;1193;61132;-81
2021/09/23 02:45:36;;;;;;;34.00;18.70;;;;;;;10.92;91.58;101287.20;112701;1191;61540;-81
2021/09/23 02:48:03;;;;;;;29.20;16.70;;;;;;;10.90;91.52;101280.17;112598;1191;61513;-82
2021/09/23 02:50:30;;;;;;;32.70;18.60;;;;;;;10.87;91.64;101280.10;112634;1192;61056;-82
2021/09/23 02:52:56;;;;;;;42.20;19.20;;;;;;;10.84;91.79;101276.34;112630;1192;61017;-81
2021/09/23 02:55:23;;;;;;;31.70;18.50;;;;;;;10.81;91.95;101272.55;112659;1193;61064;-80
2021/09/23 02:57:51;;;;;;;31.70;17.30;;;;;;;10.80;91.94;101269.70;112638;1193;62134;-80
2021/09/23 03:00:19;;;;;;;31.10;17.20;;;;;;;10.79;92.03;101269.79;112695;1193;60979;-83
2021/09/23 03:02:46;;;;;;;34.20;18.70;;;;;;;10.78;91.79;101274.43;112601;1192;74532;-83
2021/09/23 03:05:13;;;;;;;32.90;18.40;;;;;;;10.79;91.88;101271.38;112539;1192;71145;-81
2021/09/23 03:07:39;;;;;;;29.40;15.50;;;;;;;10.79;91.63;101264.85;112567;1192;61011;-80
2021/09/23 03:10:06;;;;;;;30.00;17.80;;;;;;;10.79;91.58;101263.18;112668;1191;60956;-80
2021/09/23 03:12:33;;;;;;;32.60;18.20;;;;;;;10.78;91.57;101253.40;112683;1191;60949;-81
2021/09/23 03:14:59;;;;;;;22.50;13.60;;;;;;;10.77;91.62;101254.95;112569;1192;74540;-82
2021/09/23 03:17:26;;;;;;;34.80;18.60;;;;;;;10.77;91.63;101249.13;112665;1192;60963;-80
2021/09/23 03:19:53;;;;;;;37.80;18.60;;;;;;;10.78;91.49;101248.95;112651;1192;72214;-81
2021/09/23 03:22:20;;;;;;;36.90;19.40;;;;;;;10.79;91.37;101241.59;112626;1191;61052;-80
2021/09/23 03:24:50;;;;;;;39.00;20.30;;;;;;;10.79;91.21;101237.08;112705;1192;61000;-79
2021/09/23 03:27:16;;;;;;;38.00;19.40;;;;;;;10.78;91.22;101232.67;112528;1192;74825;-81
2021/09/23 03:29:44;;;;;;;27.20;15.90;;;;;;;10.78;91.08;101231.85;112700;1192;61052;-81
2021/09/23 03:32:10;;;;;;;33.60;17.70;;;;;;;10.77;91.06;101235.27;112641;1193;73672;-80
2021/09/23 03:34:37;;;;;;;37.50;19.00;;;;;;;10.76;91.00;101235.08;112438;1193;62003;-81
2021/09/23 03:37:04;;;;;;;36.60;20.10;;;;;;;10.75;91.03;101237.84;112493;1192;62037;-81
2021/09/23 03:39:30;;;;;;;30.80;17.40;;;;;;;10.74;91.04;101235.68;112371;1193;76300;-81
2021/09/23 03:41:57;;;;;;;38.30;19.50;;;;;;;10.72;90.97;101238.13;112333;1192;72046;-81
2021/09/23 03:44:23;;;;;;;34.20;18.40;;;;;;;10.71;90.94;101243.17;112385;1193;61043;-82
2021/09/23 03:46:50;;;;;;;36.80;20.10;;;;;;;10.70;90.98;101239.61;112523;1192;61013;-79
2021/09/23 03:49:16;;;;;;;27.30;15.60;;;;;;;10.70;91.12;101229.50;112450;1192;61039;-80
2021/09/23 03:51:43;;;;;;;36.10;18.70;;;;;;;10.70;91.02;101224.72;112512;1193;74712;-82
2021/09/23 03:54:09;;;;;;;37.00;19.80;;;;;;;10.70;90.98;101225.62;112508;1192;62037;-80
2021/09/23 03:56:37;;;;;;;35.80;20.00;;;;;;;10.70;90.93;101218.85;112448;1184;72983;-80
2021/09/23 03:59:04;;;;;;;33.20;18.20;;;;;;;10.71;91.03;101220.44;112353;1192;61064;-81
2021/09/23 04:01:30;;;;;;;48.40;22.00;;;;;;;10.71;90.99;101217.70;112323;1192;61059;-82
2021/09/23 04:03:57;;;;;;;41.00;19.90;;;;;;;10.73;90.89;101216.23;112558;1192;74537;-81
2021/09/23 04:06:24;;;;;;;33.50;18.60;;;;;;;10.76;90.82;101208.15;112290;1193;70828;-81
2021/09/23 04:08:50;;;;;;;38.80;20.10;;;;;;;10.77;90.72;101205.96;112393;1193;61049;-80
2021/09/23 04:11:17;;;;;;;36.30;19.90;;;;;;;10.79;90.68;101201.31;112276;1192;61055;-79
2021/09/23 04:13:44;;;;;;;33.70;17.40;;;;;;;10.84;90.43;101207.00;112317;1192;61136;-80
2021/09/23 04:16:10;;;;;;;37.80;22.50;;;;;;;10.85;90.39;101201.52;112475;1193;75819;-80
2021/09/23 04:18:37;;;;;;;33.60;20.60;;;;;;;10.87;90.30;101197.69;112365;1193;73624;-80
2021/09/23 04:21:04;;;;;;;39.50;21.00;;;;;;;10.87;90.23;101194.41;112418;1192;73888;-84
2021/09/23 04:23:30;;;;;;;44.10;20.80;;;;;;;10.89;90.03;101192.27;112444;1192;62130;-83
2021/09/23 04:25:57;;;;;;;32.20;18.00;;;;;;;10.90;90.13;101189.52;112581;1192;61071;-83
2021/09/23 04:28:24;;;;;;;39.50;20.00;;;;;;;10.90;89.86;101192.91;112520;1192;61033;-84
2021/09/23 04:30:50;;;;;;;38.00;18.90;;;;;;;10.90;89.93;101192.73;112421;1192;61087;-83
2021/09/23 04:33:17;;;;;;;37.50;20.40;;;;;;;10.89;89.90;101191.01;112424;1192;73716;-82
2021/09/23 04:35:45;;;;;;;43.30;20.20;;;;;;;10.88;89.81;101188.09;112719;1192;61996;-80
2021/09/23 04:38:17;;;;;;;38.60;20.40;;;;;;;10.89;89.75;101186.07;112449;1192;61603;-79
2021/09/23 04:40:44;;;;;;;38.20;20.00;;;;;;;10.88;89.71;101188.80;112559;1192;74554;-81
2021/09/23 04:43:11;;;;;;;34.80;19.70;;;;;;;10.89;89.56;101194.77;112544;1192;71863;-80
2021/09/23 04:45:38;;;;;;;32.00;18.60;;;;;;;10.88;89.65;101191.52;112380;1191;73341;-80
2021/09/23 04:48:05;;;;;;;44.10;21.90;;;;;;;10.86;89.64;101187.61;112429;1192;61014;-80
2021/09/23 04:50:32;;;;;;;43.50;22.20;;;;;;;10.84;89.74;101185.60;112369;1192;61091;-81
2021/09/23 04:53:00;;;;;;;37.30;21.20;;;;;;;10.81;89.76;101185.00;112456;1192;74593;-80
2021/09/23 04:55:28;;;;;;;39.10;19.00;;;;;;;10.79;89.98;101179.36;112485;1192;72109;-80
2021/09/23 04:57:54;;;;;;;41.40;20.90;;;;;;;10.79;89.94;101169.27;112724;1193;72582;-82
2021/09/23 05:00:21;;;;;;;45.70;20.30;;;;;;;10.79;89.88;101159.23;112593;1192;61952;-80
2021/09/23 05:02:48;;;;;;;46.00;22.30;;;;;;;10.81;89.94;101157.73;112453;1190;60984;-80
2021/09/23 05:05:15;;;;;;;42.40;22.00;;;;;;;10.83;89.97;101149.90;112928;1192;74434;-80
2021/09/23 05:07:41;;;;;;;42.70;21.40;;;;;;;10.84;89.63;101145.94;112700;1190;72094;-80
2021/09/23 05:10:08;;;;;;;37.20;19.40;;;;;;;10.85;89.66;101148.11;112912;1190;72800;-81
2021/09/23 05:12:35;;;;;;;42.20;20.20;;;;;;;10.87;89.55;101149.02;112681;1192;61591;-83
2021/09/23 05:15:02;;;;;;;38.50;19.80;;;;;;;10.88;89.64;101152.42;112186;1192;60984;-74
2021/09/23 05:17:28;;;;;;;38.40;20.00;;;;;;;10.90;89.47;101147.89;111974;1192;75607;-75
2021/09/23 05:19:56;;;;;;;40.00;21.90;;;;;;;10.95;89.21;101143.31;111980;1193;61011;-75
2021/09/23 05:22:27;;;;;;;35.90;21.10;;;;;;;10.98;88.98;101138.19;112462;1192;72576;-74
2021/09/23 05:24:55;;;;;;;34.50;20.30;;;;;;;11.01;88.88;101134.47;112003;1192;61887;-74
2021/09/23 05:27:22;;;;;;;35.80;18.70;;;;;;;11.04;88.67;101138.08;111991;1193;61053;-75
2021/09/23 05:29:48;;;;;;;32.70;15.60;;;;;;;11.07;88.54;101148.58;112117;1192;74246;-74
2021/09/23 05:32:17;;;;;;;42.60;18.40;;;;;;;11.10;88.41;101150.87;112121;1193;71165;-74
2021/09/23 05:34:44;;;;;;;35.50;19.40;;;;;;;11.14;88.21;101140.36;112134;1192;72318;-76
2021/09/23 05:37:11;;;;;;;38.60;20.50;;;;;;;11.17;88.04;101138.94;112320;1192;62333;-74
2021/09/23 05:39:37;;;;;;;41.50;21.10;;;;;;;11.20;87.89;101140.11;112113;1192;61444;-73
2021/09/23 05:42:04;;;;;;;34.50;18.30;;;;;;;11.21;87.81;101141.89;112027;1192;61138;-74
2021/09/23 05:44:31;;;;;;;39.30;20.20;;;;;;;11.22;87.68;101143.85;112151;1193;70007;-74
2021/09/23 05:46:57;;;;;;;36.40;20.40;;;;;;;11.26;87.47;101148.63;112307;1193;61487;-72
2021/09/23 05:49:24;;;;;;;33.20;18.10;;;;;;;11.30;87.34;101145.16;112300;1192;61708;-73
2021/09/23 05:51:51;;;;;;;36.40;18.60;;;;;;;11.33;87.35;101143.23;112388;1193;61091;-72
2021/09/23 05:54:18;;;;;;;37.00;19.90;;;;;;;11.35;87.16;101127.39;112355;1193;75529;-74
2021/09/23 05:56:45;;;;;;;35.50;19.20;;;;;;;11.38;87.21;101116.70;112395;1193;61132;-72
2021/09/23 05:59:11;;;;;;;38.30;18.90;;;;;;;11.40;87.01;101110.19;112319;1194;72085;-72
2021/09/23 06:01:38;;;;;;;37.30;21.90;;;;;;;11.43;86.97;101105.79;112301;1192;61116;-73
2021/09/23 06:04:06;;;;;;;35.60;20.10;;;;;;;11.45;86.75;101105.25;112304;1192;61058;-73
2021/09/23 06:06:33;;;;;;;35.10;20.00;;;;;;;11.48;86.58;101097.67;112045;1192;75501;-74
2021/09/23 06:09:00;;;;;;;38.00;20.30;;;;;;;11.51;86.49;101097.55;112102;1192;71069;-74
2021/09/23 06:11:27;;;;;;;35.80;18.20;;;;;;;11.54;86.49;101096.98;112302;1191;72958;-73
2021/09/23 06:13:53;;;;;;;43.00;17.90;;;;;;;11.57;86.24;101098.21;112210;1193;61065;-74
2021/09/23 06:16:20;;;;;;;40.40;18.20;;;;;;;11.61;86.10;101101.52;112195;1193;62234;-74
2021/09/23 06:18:47;;;;;;;39.80;20.30;;;;;;;11.65;86.04;101095.95;112144;1193;74694;-73
2021/09/23 06:21:14;;;;;;;33.60;20.60;;;;;;;11.69;85.86;101086.27;112114;1193;72105;-75
2021/09/23 06:23:41;;;;;;;29.60;16.40;;;;;;;11.73;85.56;101077.92;112549;1192;72796;-75
2021/09/23 06:26:07;;;;;;;35.60;19.90;;;;;;;11.77;85.62;101082.36;112183;1193;61029;-75
2021/09/23 06:28:34;;;;;;;31.60;17.70;;;;;;;11.83;85.16;101085.23;112031;1192;61043;-75
2021/09/23 06:31:02;;;;;;;28.90;16.20;;;;;;;11.89;85.02;101089.59;112072;1193;61071;-75
2021/09/23 06:33:29;;;;;;;31.30;17.20;;;;;;;11.95;84.70;101079.73;112095;1193;72108;-74
2021/09/23 06:35:56;;;;;;;28.60;17.30;;;;;;;12.00;84.49;101082.10;111903;1193;72675;-76
2021/09/23 06:38:23;;;;;;;33.40;17.90;;;;;;;12.04;84.25;101074.69;112156;1190;61073;-75
2021/09/23 06:40:54;;;;;;;31.80;17.70;;;;;;;12.09;84.16;101065.66;112169;1192;61029;-75
2021/09/23 06:43:22;;;;;;;35.20;17.80;;;;;;;12.14;84.18;101069.18;112605;1193;74625;-75
2021/09/23 06:45:49;;;;;;;30.30;15.70;;;;;;;12.19;84.08;101061.50;112223;1192;72026;-72
2021/09/23 06:48:16;;;;;;;30.20;16.80;;;;;;;12.25;83.93;101059.77;112220;1193;72504;-72
2021/09/23 06:50:42;;;;;;;30.10;17.00;;;;;;;12.31;83.68;101063.19;112324;1193;61077;-73
2021/09/23 06:53:09;;;;;;;32.00;16.60;;;;;;;12.37;83.62;101076.35;112307;1192;61003;-74
2021/09/23 06:55:36;;;;;;;27.20;15.40;;;;;;;12.44;83.19;101072.96;111951;1192;74695;-74
2021/09/23 06:58:02;;;;;;;24.30;13.80;;;;;;;12.54;83.07;101074.30;112132;1192;70898;-72
2021/09/23 07:00:29;;;;;;;31.80;16.20;;;;;;;12.66;82.78;101066.58;112111;1193;72701;-74
2021/09/23 07:03:00;;;;;;;29.10;16.60;;;;;;;12.78;82.63;101061.19;112076;1192;61018;-74
2021/09/23 07:05:27;;;;;;;26.00;14.80;;;;;;;12.88;81.92;101057.73;112664;1193;61007;-74
2021/09/23 07:07:54;;;;;;;26.90;15.70;;;;;;;12.98;81.94;101052.17;112033;1192;74965;-74
2021/09/23 07:10:20;;;;;;;21.50;12.50;;;;;;;13.08;81.45;101042.24;112055;1192;60987;-72
2021/09/23 07:12:47;;;;;;;28.30;15.30;;;;;;;13.18;81.25;101033.77;112288;1193;61046;-73
2021/09/23 07:15:13;;;;;;;29.30;15.20;;;;;;;13.30;81.08;101026.16;112205;1193;61058;-74
2021/09/23 07:17:40;;;;;;;32.80;13.40;;;;;;;13.42;80.49;101029.51;112144;1190;60986;-75
2021/09/23 07:20:07;;;;;;;26.90;12.90;;;;;;;13.54;79.61;101019.41;112362;1190;61024;-76
2021/09/23 07:22:34;;;;;;;23.70;13.50;;;;;;;13.64;78.80;101014.52;112499;1193;70997;-73
2021/09/23 07:25:00;;;;;;;22.50;10.80;;;;;;;13.74;78.05;101024.36;112485;1194;71775;-74
2021/09/23 07:27:27;;;;;;;21.00;11.30;;;;;;;13.84;78.19;101024.05;112151;1192;61160;-77
2021/09/23 07:29:53;;;;;;;20.80;12.70;;;;;;;13.95;77.51;101012.43;112304;1192;61115;-74
2021/09/23 07:32:22;;;;;;;21.30;11.90;;;;;;;14.02;76.84;101010.13;112126;1184;61039;-75
2021/09/23 07:34:49;;;;;;;22.90;12.20;;;;;;;14.09;76.57;101016.92;112129;1192;70981;-74
2021/09/23 07:37:32;;;;;;;25.20;11.50;;;;;;;14.16;76.41;101004.94;112451;1192;73616;-73
2021/09/23 07:39:59;;;;;;;16.50;7.40;;;;;;;14.23;75.90;100997.45;112374;1192;60978;-75
2021/09/23 07:42:26;;;;;;;31.70;13.80;;;;;;;14.27;75.51;100994.73;112309;1192;61037;-74
2021/09/23 07:44:52;;;;;;;16.80;8.70;;;;;;;14.31;75.44;100994.80;112432;1193;61088;-75
2021/09/23 07:47:19;;;;;;;17.80;8.60;;;;;;;14.35;75.54;100988.35;112352;1193;61052;-75
2021/09/23 07:49:45;;;;;;;35.20;12.60;;;;;;;14.41;74.94;101000.80;112241;1192;61075;-74
2021/09/23 07:52:12;;;;;;;25.20;10.80;;;;;;;14.45;74.47;101003.63;112106;1192;60979;-73
2021/09/23 07:54:38;;;;;;;35.40;11.90;;;;;;;14.46;73.73;100999.15;112186;1192;61013;-73
2021/09/23 07:57:05;;;;;;;21.40;10.60;;;;;;;14.47;73.65;100988.65;112123;1192;60986;-74
2021/09/23 07:59:32;;;;;;;16.50;9.50;;;;;;;14.49;74.06;100976.48;112174;1192;70878;-74
2021/09/23 08:01:58;;;;;;;19.20;11.10;;;;;;;14.54;74.18;100981.80;112096;1192;61075;-74
2021/09/23 08:04:25;;;;;;;24.40;12.10;;;;;;;14.58;73.86;100984.09;112147;1193;62000;-74
2021/09/23 08:06:52;;;;;;;24.00;11.70;;;;;;;14.62;73.61;100981.77;112411;1192;61097;-72
2021/09/23 08:09:18;;;;;;;23.40;11.70;;;;;;;14.68;73.00;100982.14;112481;1192;61124;-72
2021/09/23 08:11:46;;;;;;;15.30;8.80;;;;;;;14.77;72.62;100971.19;112383;1193;61046;-72
2021/09/23 08:14:13;;;;;;;17.10;10.80;;;;;;;14.85;72.29;100968.08;112309;1192;72523;-73
2021/09/23 08:16:40;;;;;;;19.60;10.40;;;;;;;14.94;72.17;100965.54;112136;1192;61039;-73
2021/09/23 08:19:07;;;;;;;18.50;11.40;;;;;;;15.02;71.79;100962.30;112199;1192;60973;-76
2021/09/23 08:21:33;;;;;;;17.20;11.00;;;;;;;15.09;71.48;100969.27;112286;1191;61418;-73
2021/09/23 08:24:00;;;;;;;22.90;9.80;;;;;;;15.15;71.65;100959.27;112308;1192;71395;-72
2021/09/23 08:26:27;;;;;;;21.20;11.90;;;;;;;15.16;70.99;100951.38;112127;1193;61052;-73
2021/09/23 08:28:55;;;;;;;19.90;10.20;;;;;;;15.18;71.02;100944.57;112190;1192;62039;-73
2021/09/23 08:31:22;;;;;;;14.70;9.00;;;;;;;15.27;71.36;100940.95;112404;1193;61030;-73
2021/09/23 08:33:50;;;;;;;16.70;10.50;;;;;;;15.39;71.05;100934.33;112621;1192;74521;-73
2021/09/23 08:36:17;;;;;;;19.00;9.90;;;;;;;15.44;70.23;100925.09;112462;1190;70972;-73
2021/09/23 08:38:45;;;;;;;19.70;10.70;;;;;;;15.53;69.84;100919.02;112404;1193;72604;-74
2021/09/23 08:41:13;;;;;;;15.70;10.00;;;;;;;15.67;70.41;100916.85;112441;1193;61481;-73
2021/09/23 08:43:40;;;;;;;19.50;9.70;;;;;;;15.78;69.57;100901.33;112393;1190;62385;-75
2021/09/23 08:46:08;;;;;;;13.20;7.50;;;;;;;15.89;68.80;100903.85;112214;1192;75657;-74
2021/09/23 08:48:35;;;;;;;17.00;9.90;;;;;;;16.03;69.15;100899.53;112511;1192;70998;-74
2021/09/23 08:51:02;;;;;;;17.80;8.60;;;;;;;16.12;67.45;100894.46;112171;1192;73602;-73
2021/09/23 08:53:31;;;;;;;15.30;10.00;;;;;;;16.21;67.48;100890.63;112441;1193;60975;-73
2021/09/23 08:55:58;;;;;;;16.20;9.50;;;;;;;16.30;67.12;100884.83;112455;1192;61056;-74
2021/09/23 08:58:25;;;;;;;15.00;8.20;;;;;;;16.41;66.71;100882.45;112343;1192;74678;-76
2021/09/23 09:01:05;;;;;;;15.60;8.50;;;;;;;16.52;66.24;100887.20;112295;1192;71363;-74
2021/09/23 09:03:34;;;;;;;13.30;8.80;;;;;;;16.61;66.45;100883.47;112358;1192;71116;-73
2021/09/23 09:06:07;;;;;;;13.10;8.10;;;;;;;16.64;65.90;100882.14;112501;1193;61100;-74
2021/09/23 09:08:35;;;;;;;14.90;9.40;;;;;;;16.68;65.78;100883.58;112294;1190;61218;-74
2021/09/23 09:11:03;;;;;;;10.90;6.80;;;;;;;16.76;65.68;100885.24;112413;1190;75288;-74
2021/09/23 09:13:32;;;;;;;14.20;6.10;;;;;;;16.89;65.02;100882.51;112131;1193;72418;-74
2021/09/23 09:16:09;;;;;;;15.10;8.20;;;;;;;17.07;64.67;100884.58;112296;1192;73609;-72
2021/09/23 09:18:36;;;;;;;13.80;8.30;;;;;;;17.17;62.97;100885.64;112326;1192;61550;-73
2021/09/23 09:21:11;;;;;;;10.70;7.20;;;;;;;17.23;63.05;100873.45;112376;1192;61062;-73
2021/09/23 09:23:46;;;;;;;13.10;6.20;;;;;;;17.38;62.48;100874.27;112150;1193;75896;-73
2021/09/23 09:26:25;;;;;;;9.40;5.00;;;;;;;17.58;60.16;100859.91;112054;1192;72112;-74
2021/09/23 09:28:54;;;;;;;11.90;6.20;;;;;;;17.77;58.39;100851.34;112099;1193;72746;-73
2021/09/23 09:31:21;;;;;;;11.90;5.10;;;;;;;17.84;56.78;100856.15;112522;1192;62028;-71
2021/09/23 09:33:50;;;;;;;10.30;4.90;;;;;;;17.94;57.23;100837.27;112260;1192;61082;-72
2021/09/23 09:36:41;;;;;;;7.90;5.40;;;;;;;18.06;56.47;100835.36;112341;1192;74620;-73
2021/09/23 09:39:11;;;;;;;9.70;4.10;;;;;;;18.09;55.69;100846.52;112192;1193;70999;-72
2021/09/23 09:41:40;;;;;;;8.40;4.50;;;;;;;18.14;55.37;100822.92;112228;1192;72526;-74
2021/09/23 09:44:09;;;;;;;6.20;3.80;;;;;;;18.17;54.87;100835.05;112378;1192;62512;-75
2021/09/23 09:46:52;;;;;;;7.40;4.30;;;;;;;18.22;54.50;100829.84;112526;1192;61055;-75
2021/09/23 09:49:21;;;;;;;7.00;3.90;;;;;;;18.33;54.79;100825.25;112471;1192;74545;-74
2021/09/23 09:52:00;;;;;;;8.20;5.10;;;;;;;18.43;54.12;100816.11;112523;1192;71276;-74
2021/09/23 09:54:27;;;;;;;8.50;4.60;;;;;;;18.51;53.31;100820.60;112394;1193;72530;-75
2021/09/23 09:56:59;;;;;;;10.00;4.80;;;;;;;18.54;53.13;100824.31;112274;1192;61090;-75
2021/09/23 09:59:25;;;;;;;6.70;4.10;;;;;;;18.55;53.31;100813.23;112556;1192;61049;-72
2021/09/23 10:01:54;;;;;;;6.80;4.70;;;;;;;18.62;53.65;100802.19;112319;1192;61061;-72
2021/09/23 10:04:23;;;;;;;10.60;4.70;;;;;;;18.72;53.35;100809.09;112276;1193;70870;-74
2021/09/23 10:06:54;;;;;;;7.30;4.10;;;;;;;18.78;52.99;100804.98;112224;1193;72640;-72
2021/09/23 10:09:21;;;;;;;9.20;4.30;;;;;;;18.89;52.38;100806.26;112396;1192;61682;-71
2021/09/23 10:11:49;;;;;;;13.90;4.50;;;;;;;18.85;51.67;100807.21;112286;1177;61001;-73
2021/09/23 10:14:18;;;;;;;8.40;4.40;;;;;;;18.83;51.24;100807.00;112213;1193;73575;-72
2021/09/23 10:16:46;;;;;;;5.90;4.00;;;;;;;18.89;51.94;100789.00;112362;1192;70677;-74
2021/09/23 10:19:15;;;;;;;19.80;5.00;;;;;;;18.90;51.12;100800.98;112241;1192;72545;-73
2021/09/23 10:21:42;;;;;;;4.70;2.90;;;;;;;18.94;51.20;100788.86;112237;1193;61056;-74
2021/09/23 10:24:10;;;;;;;9.10;3.60;;;;;;;18.98;51.98;100778.54;112215;1184;61056;-75
2021/09/23 10:26:40;;;;;;;6.80;3.70;;;;;;;19.04;51.51;100778.09;112424;1190;76862;-75
2021/09/23 10:29:10;;;;;;;11.50;4.50;;;;;;;19.07;50.97;100767.38;112244;1193;72056;-76
2021/09/23 10:31:37;;;;;;;7.00;4.30;;;;;;;19.06;50.91;100755.77;112411;1193;73775;-73
2021/09/23 10:34:06;;;;;;;7.00;3.50;;;;;;;19.09;50.95;100748.45;112299;1193;62044;-73
2021/09/23 10:36:35;;;;;;;10.90;3.90;;;;;;;19.11;51.49;100748.65;112391;1192;61421;-73
2021/09/23 10:39:06;;;;;;;6.00;3.70;;;;;;;19.17;51.16;100749.07;112301;1191;75898;-76
2021/09/23 10:41:36;;;;;;;6.90;4.40;;;;;;;19.22;50.91;100740.27;112294;1191;72240;-75
2021/09/23 10:44:05;;;;;;;5.70;3.40;;;;;;;19.25;50.64;100745.92;112343;1192;72441;-74
2021/09/23 10:46:33;;;;;;;7.10;3.60;;;;;;;19.27;50.30;100733.23;112326;1193;61666;-74
2021/09/23 10:49:04;;;;;;;5.90;3.20;;;;;;;19.36;50.52;100743.10;112288;1194;61238;-75
2021/09/23 10:51:33;;;;;;;5.50;2.70;;;;;;;19.44;51.02;100731.23;112363;1193;75088;-75
2021/09/23 10:54:00;;;;;;;5.70;3.30;;;;;;;19.55;50.57;100724.91;112412;1192;70873;-76
2021/09/23 10:56:28;;;;;;;6.10;2.90;;;;;;;19.62;50.58;100722.02;112329;1192;72652;-75
2021/09/23 10:58:57;;;;;;;6.00;2.90;;;;;;;19.74;50.57;100719.40;112466;1192;61288;-75
2021/09/23 11:01:25;;;;;;;6.20;3.10;;;;;;;19.86;50.19;100719.23;112342;1193;61218;-75
2021/09/23 11:03:56;;;;;;;4.80;3.80;;;;;;;19.90;49.86;100729.77;112372;1191;74644;-75
2021/09/23 11:06:35;;;;;;;7.30;3.90;;;;;;;19.92;50.17;100736.77;112458;1192;69861;-76
2021/09/23 11:09:18;;;;;;;6.90;3.80;;;;;;;19.92;50.22;100748.98;112304;1193;72693;-75